Terminal Aerodrome Forecast
Issued by NWS

Home | Current Version | Previous Version | Graphics & Text | Print | Product List | Glossary On
Versions: 1 2 3 4 5 6 7 8 9 10 11 12 13 14 15 16 17 18
000
FTUS42 KMHX 202330
TAFOAJ
TAF
KOAJ 202330Z 2100/2124 21005KT P6SM FEW020 BKN200
     FM211000 23005KT P6SM SCT012 BKN025
     FM211400 21005KT P6SM SCT050 SCT250
      AMD LTD TO CLD VIS AND WIND=

USA.gov is the U.S. government's official web portal to all federal, state and local government web resources and services.